Aviation Digital Data Service (ADDS)

Output produced by TAFs form (1350 UTC 17 December 2017)
found at http://www.aviationweather.gov/adds/tafs/
 
KCSG 171251Z AUTO 10005KT 10SM CLR 04/M01 A3023 RMK AO2 SLP237 T00441011 $
KCSG 171120Z 1712/1812 00000KT P6SM FEW100 BKN250 
     FM171400 13004KT P6SM SCT040 SCT100 BKN150 
     FM171700 14005KT P6SM BKN040 BKN070 
     FM172000 11004KT P6SM VCSH SCT030 OVC040 
     FM172200 09004KT 6SM -RA BR OVC040 
     FM180100 06002KT 5SM -RA BR OVC025 
     FM180600 08002KT 3SM BR OVC008